Pagrindinis puslapis
METAR-TAF:

METAR-TAF

Oro uostai :

Budapešto Ferenco Listo tarptautinis oro uostas

Budapeštas, Vengrija

platuma: 47-26N, ilguma: 019-16E, Aukštis: 151 m

Dabartinis oras

Ataskaita buvo paskelbta 32 minutes, ne 18:30 UTC
Vėjas 7 kt iš Šiaurės Vakarų
Temperatūra 11°C
Drėgmė 50%
Slėgis 1025 hPa
Matomumas 10 km arba daugiau
nėra debesų žemiau 1500 m ir nėra kamuolinių lietaus debesų

METAR: LHBP 191830Z 32007KT CAVOK 11/01 Q1025 NOSIG

Laikas: 21:02 (19:02 UTC)

Prognozė

Ataskaita buvo paskelbta 1 valandą ir 47 minutes, ne 17:15 UTC
Prognozė galioja nuo 19 metu 18 UTC su 20 metu 18 UTC
Vėjas 6 kt iš Šiaurės/Šiaurės Vakarų
Matomumas 10 km arba daugiau
nėra debesų žemiau 1500 m ir nėra kamuolinių lietaus debesų
Tapsmas
nuo 20 metu 00 UTC su 20 metu 03 UTC
Vėjas 3 kt nuo kintamojo kryptimis
Tapsmas
nuo 20 metu 10 UTC su 20 metu 12 UTC
Vėjas 6 kt iš Vakarų/Šiaurės Vakarų

TAF: LHBP 191715Z 1918/2018 33006KT CAVOK BECMG 2000/2003 VRB03KT BECMG 2010/2012 30006KT

Orai ataskaitas ir orų prognozės (METAR, TAF).

turimą stotys yra geltonos ir raudonos taškus žemėlapyje.

Perkelti pele per norėdami pamatyti stoties vardą.

Tada spustelėkite, norėdami matyti oro stebėjimo ir prognozės.

Norėdami pakeisti žemėlapį: spustelėkite ant žalios mygtukų su juodo kryžiaus žemyn,; žalią mygtuką su brūkšneliu, jei norite nutolinti; arba žalių rodyklių gretimoms žemėlapius.


METAR-TAF: